createdAt,value
2018-08-23T00:02:26.471Z,79.82
2018-08-23T00:04:56.930Z,79.53
2018-08-23T00:07:26.786Z,79.99
2018-08-23T00:09:57.386Z,80.45
2018-08-23T00:15:25.767Z,81.04
2018-08-23T00:17:59.032Z,81.08
2018-08-23T00:20:29.541Z,81.68
2018-08-23T00:23:22.994Z,81.00
2018-08-23T00:26:01.498Z,81.23
2018-08-23T00:31:55.907Z,81.55
2018-08-23T00:34:38.614Z,81.71
2018-08-23T00:37:10.425Z,81.64
2018-08-23T00:39:50.207Z,81.65
2018-08-23T00:45:28.299Z,82.96
2018-08-23T00:47:59.519Z,82.61
2018-08-23T00:51:13.939Z,83.60
2018-08-23T01:48:47.814Z,85.15
2018-08-23T01:51:33.220Z,85.07
2018-08-23T02:26:16.248Z,79.21
2018-08-23T02:40:48.943Z,81.54
2018-08-23T02:49:56.726Z,83.20
2018-08-23T02:55:23.493Z,83.82
2018-08-23T02:58:15.884Z,84.05
2018-08-23T03:00:46.826Z,84.00
2018-08-23T03:03:19.075Z,84.59
2018-08-23T03:05:52.755Z,84.35
2018-08-23T03:08:56.466Z,84.52
2018-08-23T03:29:11.438Z,85.57
2018-08-23T03:31:41.543Z,85.26
2018-08-23T03:34:11.949Z,85.10
2018-08-23T04:21:20.801Z,85.19
2018-08-23T04:26:27.986Z,85.05
2018-08-23T04:28:59.393Z,85.61
2018-08-23T04:31:29.069Z,85.60
2018-08-23T04:33:59.502Z,85.32
2018-08-23T04:36:32.598Z,84.85
2018-08-23T04:39:05.395Z,84.48
2018-08-23T04:41:35.279Z,84.78
2018-08-23T04:44:11.630Z,84.79
2018-08-23T04:46:41.189Z,84.30
2018-08-23T04:49:10.793Z,84.67
2018-08-23T04:51:40.729Z,84.33
2018-08-23T04:54:11.789Z,84.33
2018-08-23T04:56:42.497Z,83.17
2018-08-23T04:59:12.873Z,83.11
2018-08-23T05:01:42.468Z,83.36
2018-08-23T05:07:15.968Z,83.13
2018-08-23T05:09:46.896Z,83.30
2018-08-23T05:12:17.571Z,83.40
2018-08-23T05:14:51.727Z,83.66
2018-08-23T05:17:27.389Z,82.82
2018-08-23T05:19:58.104Z,82.75
2018-08-23T05:22:30.224Z,82.41
2018-08-23T05:25:17.921Z,82.08
2018-08-23T05:28:05.032Z,81.87
2018-08-23T05:30:35.518Z,81.35
2018-08-23T05:33:11.678Z,81.37
2018-08-23T05:44:48.140Z,78.07
2018-08-23T05:50:14.024Z,75.59
2018-08-23T05:52:59.546Z,76.09
2018-08-23T05:55:39.654Z,75.42
2018-08-23T05:58:22.053Z,75.60
2018-08-23T06:00:52.796Z,74.73
2018-08-23T06:03:23.853Z,74.33
2018-08-23T06:05:55.997Z,73.53
2018-08-23T06:08:28.049Z,73.19
2018-08-23T06:11:09.393Z,72.98
2018-08-23T06:16:24.496Z,72.15
2018-08-23T06:19:00.750Z,71.98
2018-08-23T06:21:32.337Z,72.48
2018-08-23T06:24:05.727Z,71.27
2018-08-23T06:26:44.404Z,70.95
2018-08-23T06:32:20.182Z,70.14
2018-08-23T06:34:51.771Z,69.51
2018-08-23T06:37:30.954Z,69.71
2018-08-23T06:40:02.201Z,70.52
2018-08-23T06:45:30.290Z,70.84
2018-08-23T06:48:16.390Z,71.37
2018-08-23T06:50:58.829Z,71.24
2018-08-23T06:53:47.171Z,71.39
2018-08-23T06:56:21.681Z,70.41
2018-08-23T06:58:51.700Z,69.83
2018-08-23T07:04:15.564Z,68.00
2018-08-23T07:12:43.058Z,65.46
2018-08-23T07:15:14.818Z,65.63
2018-08-23T07:17:47.722Z,65.70
2018-08-23T07:20:21.518Z,64.21
2018-08-23T07:22:51.418Z,64.30
2018-08-23T07:25:21.650Z,63.31
2018-08-23T07:31:01.479Z,63.38
2018-08-23T07:36:36.120Z,63.64
2018-08-23T07:39:07.447Z,63.22
2018-08-23T07:41:38.702Z,63.82
2018-08-23T07:44:10.362Z,63.61
2018-08-23T07:46:44.044Z,64.05
2018-08-23T07:49:15.755Z,62.97
2018-08-23T07:56:31.843Z,63.09
2018-08-23T08:01:52.097Z,64.26
2018-08-23T08:04:33.608Z,63.53
2018-08-23T08:07:09.104Z,64.43
2018-08-23T08:09:53.888Z,64.58
2018-08-23T08:12:40.237Z,65.26
2018-08-23T08:15:21.878Z,65.88
2018-08-23T08:18:03.729Z,66.59
2018-08-23T08:20:44.006Z,66.13
2018-08-23T08:23:27.408Z,65.56
2018-08-23T08:28:45.352Z,64.63
2018-08-23T08:31:26.092Z,63.52
2018-08-23T08:36:50.223Z,61.03
2018-08-23T08:39:21.271Z,60.00
2018-08-23T08:41:51.585Z,57.52
2018-08-23T08:44:25.318Z,56.88
2018-08-23T08:46:55.122Z,56.25
2018-08-23T08:49:24.911Z,56.96
2018-08-23T08:52:13.812Z,55.95
2018-08-23T08:54:43.595Z,55.47
2018-08-23T08:57:13.678Z,54.72
2018-08-23T09:02:43.161Z,53.52
2018-08-23T09:05:12.996Z,54.21
2018-08-23T09:07:45.121Z,49.58
2018-08-23T09:10:26.918Z,46.39
2018-08-23T09:12:58.698Z,44.41
2018-08-23T09:15:28.514Z,40.55
2018-08-23T09:17:59.715Z,37.84
2018-08-23T09:20:30.025Z,36.32
2018-08-23T09:22:59.962Z,35.95
2018-08-23T09:25:35.072Z,36.96
2018-08-23T09:28:06.510Z,39.47
2018-08-23T09:31:35.520Z,39.72
2018-08-23T09:34:17.142Z,38.92
2018-08-23T09:36:52.752Z,38.64
2018-08-23T09:39:23.851Z,40.66
2018-08-23T09:41:53.964Z,41.08
2018-08-23T09:44:28.953Z,41.94
2018-08-23T09:47:04.184Z,42.43
2018-08-23T09:49:38.375Z,42.82
2018-08-23T09:52:14.011Z,42.62
2018-08-23T09:54:45.611Z,43.18
2018-08-23T09:57:16.200Z,44.22
2018-08-23T09:59:53.007Z,44.25
2018-08-23T10:02:29.526Z,45.01
2018-08-23T10:05:15.279Z,44.88
2018-08-23T10:07:51.096Z,43.94
2018-08-23T10:10:32.407Z,41.83
2018-08-23T10:20:15.559Z,41.26
2018-08-23T10:22:47.251Z,41.51
2018-08-23T10:25:37.099Z,41.88
2018-08-23T10:28:11.610Z,40.45
2018-08-23T10:30:43.486Z,41.62
2018-08-23T10:33:13.819Z,42.52
2018-08-23T10:35:48.652Z,42.59
2018-08-23T10:38:33.493Z,40.44
2018-08-23T10:42:44.658Z,39.38
2018-08-23T10:45:21.735Z,40.98
2018-08-23T10:47:57.865Z,39.72
2018-08-23T10:50:40.756Z,40.34
2018-08-23T10:53:11.813Z,37.92
2018-08-23T10:55:47.208Z,39.48
2018-08-23T10:58:17.699Z,38.50
2018-08-23T11:01:03.102Z,37.32
2018-08-23T11:03:33.499Z,40.72
2018-08-23T11:06:04.737Z,37.76
2018-08-23T11:08:37.108Z,40.78
2018-08-23T11:11:13.700Z,40.53
2018-08-23T11:21:17.022Z,39.84
2018-08-23T11:23:48.320Z,40.51
2018-08-23T11:26:26.173Z,40.75
2018-08-23T11:28:56.775Z,40.61
2018-08-23T11:40:28.385Z,38.48
2018-08-23T11:42:59.835Z,37.77
2018-08-23T11:45:29.971Z,37.34
2018-08-23T11:48:00.087Z,37.76
2018-08-23T11:53:44.198Z,37.77
2018-08-23T11:56:26.065Z,39.30
2018-08-23T11:58:59.610Z,40.91
2018-08-23T12:13:34.089Z,47.02
2018-08-23T12:16:12.278Z,50.38
2018-08-23T12:18:43.216Z,51.71
2018-08-23T12:21:18.969Z,54.63
2018-08-23T12:23:55.076Z,57.92
2018-08-23T12:26:26.332Z,62.98
2018-08-23T12:29:03.284Z,65.93
2018-08-23T12:31:42.960Z,68.18
2018-08-23T12:34:15.374Z,71.21
2018-08-23T12:37:08.546Z,76.19
2018-08-23T12:39:43.421Z,81.92
2018-08-23T12:42:20.284Z,86.34
2018-08-23T12:44:52.669Z,90.46
2018-08-23T12:47:22.615Z,93.28
2018-08-23T12:49:58.968Z,94.56
2018-08-23T12:52:29.314Z,95.45
2018-08-23T12:54:59.346Z,95.72
2018-08-23T12:57:29.810Z,96.14
2018-08-23T13:00:00.588Z,96.73
2018-08-23T13:02:30.989Z,97.16
2018-08-23T13:05:35.339Z,97.31
2018-08-23T13:08:06.745Z,97.75
2018-08-23T13:10:37.130Z,98.55
2018-08-23T13:13:07.264Z,98.29
2018-08-23T13:15:36.939Z,98.46
2018-08-23T13:18:06.551Z,98.92
2018-08-23T13:20:36.465Z,99.04
2018-08-23T13:23:08.693Z,99.32
2018-08-23T13:25:43.281Z,99.82
2018-08-23T13:28:15.900Z,99.97
2018-08-23T13:31:04.235Z,100.00
2018-08-23T13:33:56.280Z,99.13
2018-08-23T13:39:17.548Z,99.60
2018-08-23T13:41:59.989Z,99.51
2018-08-23T13:44:29.944Z,99.45
2018-08-23T13:47:00.890Z,98.87
2018-08-23T13:49:31.057Z,99.29
2018-08-23T13:52:00.888Z,98.59
2018-08-23T13:54:31.102Z,98.49
2018-08-23T13:57:02.200Z,98.81
2018-08-23T13:59:32.641Z,99.47
2018-08-23T14:02:02.788Z,99.30
2018-08-23T14:04:36.715Z,99.45
2018-08-23T14:07:23.854Z,100.00
2018-08-23T14:09:55.013Z,99.50
2018-08-23T14:12:27.431Z,99.81
2018-08-23T14:15:17.342Z,99.70
2018-08-23T14:17:47.852Z,98.90
2018-08-23T14:20:19.072Z,98.23
2018-08-23T14:22:48.878Z,98.42
2018-08-23T14:25:18.722Z,98.68
2018-08-23T14:27:50.971Z,99.29
2018-08-23T14:30:23.054Z,99.72
2018-08-23T14:32:52.889Z,100.00
2018-08-23T14:35:22.648Z,100.00
2018-08-23T14:37:52.435Z,100.00
2018-08-23T14:40:22.177Z,100.00
2018-08-23T14:43:19.242Z,100.00
2018-08-23T14:45:49.031Z,100.00
2018-08-23T14:48:20.497Z,100.00
2018-08-23T14:50:53.720Z,100.00
2018-08-23T14:53:27.309Z,100.00
2018-08-23T14:56:02.360Z,100.00
2018-08-23T14:58:32.121Z,99.81
2018-08-23T15:01:01.778Z,100.00
2018-08-23T15:03:51.024Z,99.62
2018-08-23T15:06:34.348Z,99.73
2018-08-23T15:28:06.977Z,100.00
2018-08-23T15:30:43.746Z,99.77
2018-08-23T15:33:49.370Z,99.98
2018-08-23T15:36:28.130Z,99.70
2018-08-23T15:42:10.518Z,98.98
2018-08-23T15:44:44.148Z,98.69
2018-08-23T15:47:21.668Z,98.55
2018-08-23T15:49:58.367Z,97.96
2018-08-23T16:00:08.631Z,89.40
2018-08-23T16:02:52.284Z,89.03
2018-08-23T16:05:32.363Z,88.11
2018-08-23T16:08:22.372Z,85.41
2018-08-23T16:11:02.913Z,83.17
2018-08-23T16:13:39.197Z,85.22
2018-08-23T16:19:59.424Z,85.84
2018-08-23T16:22:37.443Z,86.71
2018-08-23T16:27:55.382Z,88.51
2018-08-23T16:30:41.909Z,87.09
2018-08-23T16:33:22.342Z,87.75
2018-08-23T16:36:03.453Z,88.08
2018-08-23T16:41:27.545Z,86.91
2018-08-23T16:44:07.239Z,85.58
2018-08-23T16:49:17.342Z,82.75
2018-08-23T16:52:07.004Z,83.42
2018-08-23T16:54:44.962Z,82.36
2018-08-23T16:57:18.631Z,82.33
2018-08-23T17:00:05.975Z,82.65
2018-08-23T17:05:32.690Z,82.79
2018-08-23T17:08:05.467Z,81.69
2018-08-23T17:10:38.395Z,82.30
2018-08-23T17:13:15.555Z,83.87
2018-08-23T17:15:53.494Z,84.75
2018-08-23T17:59:06.750Z,92.65
2018-08-23T18:08:17.481Z,95.01
2018-08-23T19:38:39.820Z,98.21
2018-08-23T19:41:10.663Z,98.63
2018-08-23T19:52:43.159Z,99.38
2018-08-23T19:55:13.083Z,99.21
2018-08-23T19:57:43.386Z,99.40
2018-08-23T20:03:14.300Z,98.86
2018-08-23T20:05:44.979Z,98.82
2018-08-23T20:08:16.627Z,99.09
2018-08-23T20:13:46.749Z,99.20
2018-08-23T20:16:32.664Z,99.25
2018-08-23T20:19:18.884Z,98.86
2018-08-23T20:25:00.780Z,98.49
2018-08-23T20:30:29.905Z,98.60
2018-08-23T20:35:38.063Z,98.13
2018-08-23T20:38:11.518Z,98.37
2018-08-23T20:40:42.152Z,98.38
2018-08-23T20:43:15.590Z,98.71
2018-08-23T20:45:47.406Z,98.26
2018-08-23T20:48:20.154Z,98.68
2018-08-23T20:50:50.770Z,98.35
2018-08-23T20:53:21.681Z,98.38
2018-08-23T20:55:52.181Z,98.50
2018-08-23T21:01:15.927Z,98.63
2018-08-23T21:03:58.725Z,98.56
2018-08-23T21:06:29.024Z,98.94
2018-08-23T21:08:59.810Z,98.97
2018-08-23T21:11:29.851Z,98.52
2018-08-23T21:13:59.540Z,98.79
2018-08-23T21:16:29.913Z,98.86
2018-08-23T21:19:01.202Z,98.74
2018-08-23T21:21:31.450Z,98.19
2018-08-23T21:24:30.135Z,98.61
2018-08-23T21:27:00.377Z,98.72
2018-08-23T21:29:30.399Z,98.40
2018-08-23T21:32:01.491Z,98.02
2018-08-23T21:34:31.533Z,97.46
2018-08-23T21:37:01.372Z,97.33
2018-08-23T21:39:33.038Z,97.06
2018-08-23T21:42:02.778Z,96.98
2018-08-23T21:44:33.032Z,96.87
2018-08-23T21:47:02.882Z,96.84
2018-08-23T21:49:33.026Z,97.30
2018-08-23T21:52:02.955Z,96.82
2018-08-23T21:54:33.471Z,96.75
2018-08-23T21:57:03.464Z,96.65
2018-08-23T21:59:33.830Z,96.33
2018-08-23T22:02:08.582Z,96.76
2018-08-23T22:04:43.756Z,96.96
2018-08-23T22:07:13.369Z,97.72
2018-08-23T22:09:43.381Z,97.59
2018-08-23T22:12:13.395Z,97.73
2018-08-23T22:14:43.076Z,97.44
2018-08-23T22:17:13.842Z,97.83
2018-08-23T22:19:44.125Z,97.50
2018-08-23T22:22:14.542Z,97.18
2018-08-23T22:24:45.227Z,97.28
2018-08-23T22:30:32.540Z,97.38
2018-08-23T22:33:03.189Z,96.82
2018-08-23T22:35:42.431Z,96.43
2018-08-23T22:39:50.285Z,96.84
2018-08-23T22:45:06.487Z,97.39
2018-08-23T22:48:38.350Z,98.00
2018-08-23T22:54:50.180Z,98.14
2018-08-23T22:57:21.612Z,97.95
2018-08-23T23:02:35.928Z,98.19
2018-08-23T23:05:21.819Z,98.50
2018-08-23T23:09:37.980Z,98.29
2018-08-23T23:12:13.322Z,98.69
2018-08-23T23:28:49.188Z,99.21
2018-08-23T23:31:20.073Z,98.74
2018-08-23T23:33:51.163Z,99.25
2018-08-23T23:36:23.397Z,98.89
2018-08-23T23:38:54.368Z,99.20
2018-08-23T23:41:27.257Z,99.31
2018-08-23T23:47:34.871Z,99.38
2018-08-23T23:55:37.351Z,99.82
2018-08-23T23:58:12.488Z,99.30
